Time;durP1;ratioP1;P1;durP2;ratioP2;P2;SDS_P1;SDS_P2;PMS_P1;PMS_P2;Temp;Humidity;BMP_temperature;BMP_pressure;BME280_temperature;BME280_humidity;BME280_pressure;Samples;Min_cycle;Max_cycle;Signal;HPM_P1;HPM_P2
2023/09/18 00:00:50;;;;;;;6.10;5.47;;;;;;;19.08;98.52;100287.25;5016760;28;20222;-81
2023/09/18 00:03:17;;;;;;;6.73;5.20;;;;;;;19.08;98.55;100284.56;5022315;28;20278;-79
2023/09/18 00:05:44;;;;;;;8.03;5.60;;;;;;;19.07;98.71;100277.47;5016794;28;20466;-81
2023/09/18 00:08:10;;;;;;;6.10;5.10;;;;;;;19.06;98.36;100273.91;5021794;28;20240;-79
2023/09/18 00:10:38;;;;;;;5.40;4.90;;;;;;;19.05;98.49;100280.31;5021367;28;20207;-79
2023/09/18 00:13:05;;;;;;;7.43;5.23;;;;;;;19.03;98.78;100263.44;5007458;28;20395;-79
2023/09/18 00:15:31;;;;;;;6.33;5.30;;;;;;;19.01;99.17;100257.34;5020933;28;20718;-80
2023/09/18 00:17:58;;;;;;;6.23;5.60;;;;;;;19.01;99.49;100240.31;5025195;28;20236;-81
2023/09/18 00:20:26;;;;;;;6.60;5.17;;;;;;;18.98;97.92;100237.97;5018218;28;20216;-80
2023/09/18 00:22:53;;;;;;;6.53;5.30;;;;;;;18.85;96.25;100232.97;5018729;28;20954;-80
2023/09/18 00:25:19;;;;;;;6.83;5.47;;;;;;;18.71;96.17;100234.41;5015567;28;20217;-79
2023/09/18 00:27:47;;;;;;;6.27;5.53;;;;;;;18.63;97.45;100241.63;5018207;28;20303;-80
2023/09/18 00:30:14;;;;;;;6.43;5.03;;;;;;;18.54;98.51;100232.59;5017583;28;20197;-79
2023/09/18 00:32:40;;;;;;;5.60;5.00;;;;;;;18.45;99.02;100224.63;5020661;28;20199;-80
2023/09/18 00:35:07;;;;;;;5.67;5.10;;;;;;;18.36;99.86;100216.47;5022798;28;20199;-80
2023/09/18 00:37:34;;;;;;;6.00;5.40;;;;;;;18.34;100.00;100212.22;5018535;28;20723;-80
2023/09/18 00:40:02;;;;;;;6.03;5.43;;;;;;;18.32;100.00;100216.94;5025148;28;20223;-79
2023/09/18 00:42:28;;;;;;;6.80;6.13;;;;;;;18.31;100.00;100207.16;5021833;28;20311;-79
2023/09/18 00:44:56;;;;;;;6.87;5.60;;;;;;;18.31;100.00;100209.84;5026043;28;20303;-80
2023/09/18 00:47:23;;;;;;;6.97;6.30;;;;;;;18.30;100.00;100192.81;5020927;28;20221;-80
2023/09/18 00:49:52;;;;;;;8.00;7.20;;;;;;;18.34;100.00;100193.34;5013934;28;20668;-80
2023/09/18 00:52:21;;;;;;;7.70;6.13;;;;;;;18.34;100.00;100190.66;5021930;28;20601;-79
2023/09/18 00:54:48;;;;;;;7.57;6.40;;;;;;;18.32;100.00;100181.88;5011767;28;20310;-80
2023/09/18 00:57:15;;;;;;;11.03;6.40;;;;;;;18.31;100.00;100183.72;5025911;28;20213;-79
2023/09/18 00:59:42;;;;;;;8.30;6.03;;;;;;;18.28;100.00;100183.19;5012026;28;20602;-80
2023/09/18 01:02:10;;;;;;;7.40;5.97;;;;;;;18.27;100.00;100182.34;5013144;28;20231;-80
2023/09/18 01:04:44;;;;;;;6.93;5.53;;;;;;;18.27;100.00;100162.66;5015069;28;20661;-80
2023/09/18 01:07:10;;;;;;;7.07;6.37;;;;;;;18.24;100.00;100154.88;5021926;28;20266;-80
2023/09/18 01:09:37;;;;;;;8.40;6.53;;;;;;;18.20;100.00;100157.03;5015599;28;20232;-79
2023/09/18 01:12:12;;;;;;;7.50;6.43;;;;;;;18.19;100.00;100157.19;5023420;28;20204;-80
2023/09/18 01:14:43;;;;;;;6.70;6.10;;;;;;;18.15;100.00;100153.97;5015295;28;20211;-79
2023/09/18 01:17:13;;;;;;;7.00;6.30;;;;;;;18.14;100.00;100146.03;5012412;28;20217;-79
2023/09/18 01:19:41;;;;;;;7.57;6.23;;;;;;;18.14;100.00;100143.34;5021607;28;20238;-79
2023/09/18 01:22:09;;;;;;;7.33;6.57;;;;;;;18.12;100.00;100135.41;5013882;28;20298;-80
2023/09/18 01:24:38;;;;;;;7.83;6.87;;;;;;;18.13;100.00;100130.88;5008352;28;20241;-81
2023/09/18 01:27:06;;;;;;;7.10;6.13;;;;;;;18.12;100.00;100130.03;5012542;28;20213;-80
2023/09/18 01:29:33;;;;;;;6.93;6.20;;;;;;;18.12;100.00;100127.31;5017018;28;20209;-80
2023/09/18 01:31:59;;;;;;;7.63;6.27;;;;;;;18.12;100.00;100129.19;5025695;28;20216;-80
2023/09/18 01:34:31;;;;;;;6.00;5.40;;;;;;;18.09;100.00;100134.91;5016600;28;20210;-80
2023/09/18 01:36:58;;;;;;;7.80;6.20;;;;;;;18.04;100.00;100129.97;5010045;28;20208;-80
2023/09/18 01:39:27;;;;;;;7.73;5.90;;;;;;;17.95;100.00;100126.38;5016648;28;20251;-80
2023/09/18 01:41:55;;;;;;;6.20;5.50;;;;;;;17.88;100.00;100129.88;5020223;28;20216;-79
2023/09/18 01:44:21;;;;;;;8.47;6.33;;;;;;;17.85;100.00;100122.94;5014681;28;20231;-79
2023/09/18 01:46:49;;;;;;;8.03;5.73;;;;;;;17.82;100.00;100128.63;5016194;28;20249;-80
2023/09/18 01:49:16;;;;;;;6.20;5.60;;;;;;;17.80;100.00;100119.00;5015895;28;20237;-80
2023/09/18 01:51:42;;;;;;;7.43;6.70;;;;;;;17.80;100.00;100124.41;5015929;28;20220;-79
2023/09/18 01:54:09;;;;;;;6.90;5.60;;;;;;;17.79;100.00;100118.16;5019924;28;20207;-79
2023/09/18 01:56:35;;;;;;;7.53;6.07;;;;;;;17.78;100.00;100113.78;5008739;28;20758;-81
2023/09/18 01:59:03;;;;;;;7.90;6.37;;;;;;;17.79;100.00;100107.38;5006408;28;20242;-80
2023/09/18 02:01:30;;;;;;;8.30;6.47;;;;;;;17.78;100.00;100105.69;5010491;28;20207;-81
2023/09/18 02:03:56;;;;;;;7.53;6.83;;;;;;;17.81;100.00;100112.63;5015347;28;20219;-79
2023/09/18 02:06:23;;;;;;;7.97;6.93;;;;;;;17.82;100.00;100101.69;5004208;28;20224;-79
2023/09/18 02:08:49;;;;;;;7.47;6.77;;;;;;;17.81;100.00;100094.63;5016805;28;20228;-79
2023/09/18 02:11:15;;;;;;;7.67;6.67;;;;;;;17.82;100.00;100104.38;5018932;28;20219;-80
2023/09/18 02:13:42;;;;;;;8.67;6.70;;;;;;;17.83;100.00;100092.63;5018060;28;20201;-79
2023/09/18 02:16:10;;;;;;;10.40;6.70;;;;;;;17.83;100.00;100095.31;5021188;28;20208;-78
2023/09/18 02:18:36;;;;;;;8.43;6.93;;;;;;;17.83;100.00;100089.06;5016148;28;20229;-80
2023/09/18 02:21:03;;;;;;;6.80;6.20;;;;;;;17.82;100.00;100090.91;5018753;28;20214;-79
2023/09/18 02:23:30;;;;;;;7.40;6.07;;;;;;;17.82;100.00;100076.59;5014811;28;20234;-79
2023/09/18 02:25:57;;;;;;;6.53;5.93;;;;;;;17.79;100.00;100077.75;5014308;28;20220;-78
2023/09/18 02:28:23;;;;;;;7.00;6.10;;;;;;;17.79;100.00;100075.06;5011235;28;20230;-79
2023/09/18 02:30:50;;;;;;;10.63;6.57;;;;;;;17.75;100.00;100084.47;5016507;28;20216;-79
2023/09/18 02:33:18;;;;;;;7.60;6.10;;;;;;;17.73;100.00;100085.66;5020697;28;20206;-79
2023/09/18 02:35:44;;;;;;;8.40;6.80;;;;;;;17.69;100.00;100071.63;5022881;28;20211;-79
2023/09/18 02:38:11;;;;;;;7.97;6.67;;;;;;;17.65;100.00;100062.19;5015278;28;20713;-79
2023/09/18 02:40:37;;;;;;;7.83;6.30;;;;;;;17.64;100.00;100060.47;5017363;28;20562;-79
2023/09/18 02:43:04;;;;;;;7.70;7.00;;;;;;;17.62;100.00;100057.91;5016187;28;20234;-80
2023/09/18 02:45:30;;;;;;;7.40;6.60;;;;;;;17.60;100.00;100051.84;5014211;28;20219;-80
2023/09/18 02:47:57;;;;;;;8.83;7.03;;;;;;;17.58;100.00;100053.84;5023360;28;20228;-79
2023/09/18 02:50:24;;;;;;;6.97;6.27;;;;;;;17.56;100.00;100045.06;5026742;28;20210;-79
2023/09/18 02:52:51;;;;;;;7.50;6.70;;;;;;;17.55;100.00;100045.25;5015263;28;20203;-80
2023/09/18 02:55:18;;;;;;;7.27;6.07;;;;;;;17.54;100.00;100038.16;5015980;28;20216;-78
2023/09/18 02:57:44;;;;;;;8.23;6.43;;;;;;;17.52;100.00;100046.41;5008967;28;20225;-79
2023/09/18 03:00:11;;;;;;;9.57;7.00;;;;;;;17.53;100.00;100041.88;5020090;28;20226;-79
2023/09/18 03:02:38;;;;;;;7.37;6.50;;;;;;;17.55;100.00;100039.88;5022891;28;20207;-79
2023/09/18 03:05:05;;;;;;;8.10;7.30;;;;;;;17.52;100.00;100032.09;5021415;28;20221;-79
2023/09/18 03:07:33;;;;;;;7.53;6.83;;;;;;;17.47;100.00;100023.63;5021000;28;20346;-80
2023/09/18 03:10:00;;;;;;;7.33;6.57;;;;;;;17.43;100.00;100028.47;5025168;28;20210;-79
2023/09/18 03:12:26;;;;;;;7.20;6.53;;;;;;;17.40;100.00;100020.72;5017083;28;20222;-79
2023/09/18 03:14:52;;;;;;;7.40;6.70;;;;;;;17.37;100.00;100012.13;5013599;28;20200;-80
2023/09/18 03:17:20;;;;;;;6.70;6.10;;;;;;;17.35;100.00;100014.97;5024555;28;20209;-79
2023/09/18 03:19:48;;;;;;;9.17;6.60;;;;;;;17.33;100.00;100015.13;5019884;28;20622;-80
2023/09/18 03:22:15;;;;;;;7.93;7.03;;;;;;;17.32;100.00;100012.59;5016005;28;20305;-79
2023/09/18 03:24:43;;;;;;;6.70;6.00;;;;;;;17.31;100.00;100011.75;5018529;28;20239;-80
2023/09/18 03:27:09;;;;;;;6.60;6.00;;;;;;;17.30;100.00;100010.03;5024601;28;20224;-80
2023/09/18 03:29:36;;;;;;;8.03;7.23;;;;;;;17.32;100.00;100008.03;5023239;28;20214;-81
2023/09/18 03:32:02;;;;;;;6.97;6.27;;;;;;;17.32;100.00;100004.50;5022073;28;20214;-80
2023/09/18 03:34:29;;;;;;;7.37;6.63;;;;;;;17.30;100.00;99993.91;5025151;28;20209;-80
2023/09/18 03:36:55;;;;;;;9.03;6.70;;;;;;;17.28;100.00;99982.44;5018766;28;20234;-80
2023/09/18 03:39:22;;;;;;;7.97;6.73;;;;;;;17.24;100.00;99980.22;5018774;28;20231;-80
2023/09/18 03:41:49;;;;;;;9.47;6.53;;;;;;;17.21;100.00;99977.81;5024135;28;20218;-82
2023/09/18 03:44:16;;;;;;;8.43;6.80;;;;;;;17.16;100.00;99975.63;5012704;28;20322;-80
2023/09/18 03:46:43;;;;;;;8.00;6.33;;;;;;;17.13;100.00;99957.09;5020705;28;20210;-79
2023/09/18 03:49:09;;;;;;;9.90;6.30;;;;;;;17.12;100.00;99966.16;5022250;28;20602;-79
2023/09/18 03:51:36;;;;;;;9.67;6.50;;;;;;;17.11;100.00;99958.25;5025051;28;20825;-80
2023/09/18 03:54:02;;;;;;;10.53;6.87;;;;;;;17.10;100.00;99949.34;5015539;28;20687;-80
2023/09/18 03:56:29;;;;;;;9.43;6.50;;;;;;;17.11;100.00;99950.19;5013335;28;20212;-79
2023/09/18 03:58:58;;;;;;;9.43;6.60;;;;;;;17.11;100.00;99951.03;5013242;28;20248;-79
2023/09/18 04:01:25;;;;;;;10.83;6.77;;;;;;;17.11;100.00;99939.41;5016248;28;20217;-80
2023/09/18 04:03:51;;;;;;;8.77;7.70;;;;;;;17.12;100.00;99935.72;5013145;28;20597;-80
2023/09/18 04:06:20;;;;;;;7.90;7.10;;;;;;;17.13;100.00;99932.03;5023072;28;20716;-80
2023/09/18 04:08:46;;;;;;;11.87;7.13;;;;;;;17.14;100.00;99920.28;5020275;28;20227;-80
2023/09/18 04:11:13;;;;;;;9.47;7.03;;;;;;;17.16;100.00;99919.13;5018840;28;20204;-81
2023/09/18 04:13:39;;;;;;;7.63;6.87;;;;;;;17.17;100.00;99906.50;5014964;28;20202;-79
2023/09/18 04:16:07;;;;;;;11.93;7.33;;;;;;;17.19;100.00;99912.59;5007756;28;20216;-79
2023/09/18 04:18:34;;;;;;;8.83;7.27;;;;;;;17.18;100.00;99906.34;5015788;28;20730;-79
2023/09/18 04:21:00;;;;;;;8.33;7.43;;;;;;;17.19;100.00;99899.97;5014456;28;20760;-80
2023/09/18 04:23:28;;;;;;;7.50;6.70;;;;;;;17.19;100.00;99901.81;5016949;28;20724;-80
2023/09/18 04:25:54;;;;;;;9.30;7.43;;;;;;;17.17;100.00;99891.22;5015774;28;20663;-80
2023/09/18 04:28:23;;;;;;;7.30;6.60;;;;;;;17.15;100.00;99890.53;5014151;28;20359;-78
2023/09/18 04:30:49;;;;;;;8.90;8.07;;;;;;;17.15;100.00;99881.59;5002844;28;20208;-78
2023/09/18 04:33:17;;;;;;;10.47;6.93;;;;;;;17.14;100.00;99863.78;5010803;28;20867;-80
2023/09/18 04:35:44;;;;;;;8.17;7.37;;;;;;;17.10;100.00;99871.31;5015003;28;20204;-79
2023/09/18 04:38:11;;;;;;;7.40;6.43;;;;;;;17.08;100.00;99859.00;5015395;28;20241;-80
2023/09/18 04:40:37;;;;;;;9.57;6.93;;;;;;;17.06;100.00;99852.94;5018172;28;20206;-79
2023/09/18 04:43:04;;;;;;;7.57;6.83;;;;;;;17.05;100.00;99849.41;5014422;28;20217;-79
2023/09/18 04:45:31;;;;;;;8.30;6.97;;;;;;;17.04;100.00;99847.72;5013630;28;20230;-80
2023/09/18 04:47:57;;;;;;;8.30;6.60;;;;;;;17.02;100.00;99834.41;5007235;28;20255;-79
2023/09/18 04:50:26;;;;;;;8.33;7.53;;;;;;;17.03;100.00;99829.88;5019714;28;20271;-80
2023/09/18 04:52:54;;;;;;;10.43;7.90;;;;;;;17.02;100.00;99830.06;5015205;28;20206;-78
2023/09/18 04:55:21;;;;;;;8.27;7.47;;;;;;;17.00;100.00;99825.69;5011791;28;20203;-79
2023/09/18 04:57:47;;;;;;;8.43;6.93;;;;;;;17.00;100.00;99814.94;5014268;28;20219;-80
2023/09/18 05:00:14;;;;;;;7.50;6.70;;;;;;;17.00;100.00;99811.41;5013404;28;20215;-80
2023/09/18 05:02:41;;;;;;;8.90;6.80;;;;;;;17.02;100.00;99814.75;5019307;28;20660;-79
2023/09/18 05:05:09;;;;;;;9.57;7.50;;;;;;;17.03;100.00;99808.38;5017285;28;20696;-79
2023/09/18 05:07:37;;;;;;;10.77;7.73;;;;;;;17.05;100.00;99800.13;5013492;28;20261;-80
2023/09/18 05:10:05;;;;;;;9.70;7.80;;;;;;;17.07;100.00;99796.28;5016123;28;20263;-80
2023/09/18 05:12:32;;;;;;;9.77;7.73;;;;;;;17.09;100.00;99791.59;5006646;28;20251;-80
2023/09/18 05:14:59;;;;;;;8.77;7.53;;;;;;;17.13;100.00;99784.91;5023727;28;20214;-80
2023/09/18 05:17:42;;;;;;;9.30;8.33;;;;;;;17.18;100.00;99785.28;5024217;28;20268;-80
2023/09/18 05:20:11;;;;;;;8.60;7.73;;;;;;;17.22;100.00;99786.63;5020692;28;20225;-80
2023/09/18 05:22:39;;;;;;;8.00;7.17;;;;;;;17.28;100.00;99799.44;5017657;28;20260;-81
2023/09/18 05:25:06;;;;;;;10.03;7.77;;;;;;;17.32;100.00;99808.03;5021398;28;20259;-81
2023/09/18 05:27:34;;;;;;;6.97;6.27;;;;;;;17.42;100.00;99829.44;4992680;28;20310;-81
2023/09/18 05:30:00;;;;;;;8.23;6.57;;;;;;;17.56;100.00;99809.97;4992874;28;20247;-80
2023/09/18 05:32:27;;;;;;;7.33;6.73;;;;;;;17.70;100.00;99814.78;5015040;28;20222;-83
2023/09/18 05:34:53;;;;;;;7.07;6.00;;;;;;;17.86;100.00;99817.53;5018546;28;20197;-81
2023/09/18 05:37:20;;;;;;;6.63;5.93;;;;;;;18.03;100.00;99813.03;5010518;28;20206;-82
2023/09/18 05:39:48;;;;;;;6.27;5.60;;;;;;;18.19;100.00;99814.91;5018145;28;20201;-81
2023/09/18 05:42:17;;;;;;;6.40;5.53;;;;;;;18.34;100.00;99805.16;5020712;28;20696;-83
2023/09/18 05:44:44;;;;;;;5.63;5.07;;;;;;;18.48;100.00;99809.88;5011510;28;20285;-82
2023/09/18 05:47:10;;;;;;;5.80;5.23;;;;;;;18.61;100.00;99807.56;5020005;28;20767;-82
2023/09/18 05:49:37;;;;;;;5.60;5.10;;;;;;;18.76;100.00;99804.19;5016846;28;20667;-83
2023/09/18 05:52:04;;;;;;;5.77;5.17;;;;;;;18.89;100.00;99796.41;5020907;28;20671;-83
2023/09/18 05:54:30;;;;;;;5.50;4.87;;;;;;;19.01;100.00;99787.75;5011354;28;20255;-83
2023/09/18 05:56:58;;;;;;;4.90;4.43;;;;;;;19.13;100.00;99784.72;5015213;28;20297;-83
2023/09/18 05:59:24;;;;;;;5.23;4.83;;;;;;;19.29;98.56;99782.81;5014815;28;20232;-83
2023/09/18 06:01:53;;;;;;;5.87;4.60;;;;;;;19.43;97.20;99779.38;5016890;28;20668;-82
2023/09/18 06:04:21;;;;;;;5.53;4.70;;;;;;;19.58;95.80;99778.66;5022674;28;20223;-82
2023/09/18 06:06:47;;;;;;;5.13;4.63;;;;;;;19.67;94.59;99777.63;5022448;28;20213;-83
2023/09/18 06:09:13;;;;;;;6.47;4.60;;;;;;;19.79;93.32;99773.50;5016082;28;20223;-83
2023/09/18 06:11:40;;;;;;;5.63;4.93;;;;;;;19.92;91.40;99759.38;5013891;28;20216;-81
2023/09/18 06:14:08;;;;;;;4.97;4.57;;;;;;;20.04;90.50;99745.31;5010616;28;20209;-82
2023/09/18 06:16:34;;;;;;;5.03;4.53;;;;;;;20.11;89.72;99732.72;5017357;28;20221;-82
2023/09/18 06:19:01;;;;;;;6.10;4.17;;;;;;;20.21;88.49;99726.25;5018129;28;20717;-83
2023/09/18 06:21:28;;;;;;;4.80;4.40;;;;;;;20.28;88.39;99713.69;5013532;28;20599;-83
2023/09/18 06:23:55;;;;;;;4.80;4.40;;;;;;;20.34;88.03;99700.28;5014032;28;20219;-82
2023/09/18 06:26:22;;;;;;;5.00;4.60;;;;;;;20.40;88.00;99709.56;5015538;28;20208;-83
2023/09/18 06:28:49;;;;;;;6.70;4.43;;;;;;;20.44;87.96;99708.16;5017337;28;20275;-83
2023/09/18 06:31:24;;;;;;;4.70;4.30;;;;;;;20.50;88.30;99698.47;5019128;28;20208;-83
2023/09/18 06:33:50;;;;;;;7.00;4.97;;;;;;;20.52;88.19;99691.00;5014234;28;20205;-83
2023/09/18 06:36:17;;;;;;;6.77;4.20;;;;;;;20.55;88.01;99688.78;5010758;28;20216;-83
2023/09/18 06:38:43;;;;;;;4.50;4.20;;;;;;;20.61;87.28;99688.03;5012723;28;20224;-82
2023/09/18 06:41:10;;;;;;;5.60;5.10;;;;;;;20.65;86.13;99699.31;5008591;28;20209;-82
2023/09/18 06:43:36;;;;;;;4.72;4.20;;;;;;;20.68;86.13;99698.97;5018683;28;20236;-84
2023/09/18 06:46:03;;;;;;;4.83;4.33;;;;;;;20.71;86.07;99701.31;5014686;28;20236;-83
2023/09/18 06:48:32;;;;;;;5.13;4.10;;;;;;;20.75;85.63;99694.50;5029203;28;20228;-82
2023/09/18 06:51:00;;;;;;;4.57;4.18;;;;;;;20.77;85.46;99697.88;5022210;28;20229;-83
2023/09/18 06:53:26;;;;;;;4.50;4.10;;;;;;;20.76;86.08;99707.00;5015973;28;20237;-82
2023/09/18 06:55:53;;;;;;;4.38;4.00;;;;;;;20.75;86.35;99703.47;5019462;28;20285;-83
2023/09/18 06:58:19;;;;;;;4.47;3.90;;;;;;;20.78;85.18;99697.66;5028401;28;20239;-83
2023/09/18 07:00:46;;;;;;;5.93;4.50;;;;;;;20.84;84.48;99695.25;5022055;28;20203;-83
2023/09/18 07:03:12;;;;;;;7.00;4.13;;;;;;;20.84;84.36;99692.53;5022571;28;20246;-83
2023/09/18 07:05:41;;;;;;;4.95;4.43;;;;;;;20.91;83.24;99707.00;5020427;28;20222;-83
2023/09/18 07:08:11;;;;;;;4.45;4.05;;;;;;;20.98;81.75;99707.94;5020848;28;20257;-82
2023/09/18 07:10:38;;;;;;;3.97;3.55;;;;;;;21.04;81.39;99712.59;5026261;28;20199;-83
2023/09/18 07:13:04;;;;;;;4.15;3.75;;;;;;;21.07;81.59;99709.53;5016363;28;20209;-83
2023/09/18 07:15:32;;;;;;;6.70;4.28;;;;;;;21.11;81.08;99718.97;5021402;28;20202;-83
2023/09/18 07:17:58;;;;;;;4.15;3.83;;;;;;;21.13;81.42;99715.03;5021110;28;20308;-84
2023/09/18 07:20:24;;;;;;;4.40;4.00;;;;;;;21.16;81.54;99713.81;5021160;28;20202;-83
2023/09/18 07:22:52;;;;;;;4.15;3.83;;;;;;;21.15;81.04;99720.25;5019246;28;20617;-80
2023/09/18 07:25:19;;;;;;;4.70;4.30;;;;;;;21.15;80.89;99721.09;5019757;28;20227;-79
2023/09/18 07:27:45;;;;;;;4.68;4.25;;;;;;;21.17;81.04;99715.47;5023776;28;20249;-79
2023/09/18 07:30:15;;;;;;;5.82;4.45;;;;;;;21.20;81.09;99723.25;5014964;28;20210;-80
2023/09/18 07:32:42;;;;;;;4.35;3.95;;;;;;;21.22;81.48;99704.13;5020208;28;20210;-78
2023/09/18 07:35:09;;;;;;;5.00;3.60;;;;;;;21.24;81.20;99713.75;5014451;28;20198;-80
2023/09/18 07:37:36;;;;;;;4.57;4.07;;;;;;;21.28;81.10;99733.16;5017788;28;20219;-80
2023/09/18 07:40:05;;;;;;;5.20;4.47;;;;;;;21.29;81.31;99719.44;5028327;28;20206;-80
2023/09/18 07:42:32;;;;;;;4.72;3.88;;;;;;;21.31;80.85;99714.69;5014698;28;20209;-80
2023/09/18 07:44:58;;;;;;;4.63;4.22;;;;;;;21.32;80.76;99719.03;5022986;28;20750;-79
2023/09/18 07:47:25;;;;;;;5.07;3.80;;;;;;;21.33;80.74;99722.59;5024721;28;20238;-79
2023/09/18 07:49:51;;;;;;;4.40;3.97;;;;;;;21.34;80.32;99730.53;5027460;28;20236;-80
2023/09/18 07:52:17;;;;;;;4.28;3.88;;;;;;;21.34;79.68;99724.28;5017343;28;20661;-80
2023/09/18 07:54:44;;;;;;;4.38;3.83;;;;;;;21.33;79.62;99718.00;5027874;28;20198;-80
2023/09/18 07:57:12;;;;;;;5.50;3.90;;;;;;;21.39;79.41;99725.41;5028239;28;20225;-79
2023/09/18 07:59:42;;;;;;;7.28;4.30;;;;;;;21.42;79.12;99727.72;5031675;28;20209;-79
2023/09/18 08:02:09;;;;;;;4.85;3.60;;;;;;;21.45;78.92;99715.69;5025684;28;20203;-78
2023/09/18 08:04:35;;;;;;;5.57;4.18;;;;;;;21.50;77.84;99728.66;5027420;28;20658;-78
2023/09/18 08:07:02;;;;;;;5.40;3.60;;;;;;;21.60;77.58;99730.03;5022697;28;20213;-80
2023/09/18 08:09:29;;;;;;;3.47;3.17;;;;;;;21.66;77.05;99725.72;5027752;28;20225;-79
2023/09/18 08:11:56;;;;;;;4.00;3.13;;;;;;;21.75;76.80;99724.56;5021013;28;20800;-79
2023/09/18 08:14:23;;;;;;;4.05;3.38;;;;;;;21.82;76.27;99737.19;5017781;28;20206;-78
2023/09/18 08:16:57;;;;;;;4.70;3.17;;;;;;;21.87;76.00;99749.28;5018153;28;20597;-79
2023/09/18 08:19:26;;;;;;;8.35;3.65;;;;;;;21.90;75.66;99749.75;5017456;28;20284;-79
2023/09/18 08:21:52;;;;;;;4.85;3.55;;;;;;;21.94;75.50;99753.75;5011821;28;20298;-78
2023/09/18 08:24:19;;;;;;;6.15;3.28;;;;;;;21.98;75.59;99752.34;5018319;28;20206;-79
2023/09/18 08:26:45;;;;;;;7.05;3.28;;;;;;;22.04;75.40;99758.88;5018447;28;20223;-78
2023/09/18 08:29:11;;;;;;;4.18;3.15;;;;;;;22.07;75.16;99747.66;5019755;28;20268;-79
2023/09/18 08:31:39;;;;;;;4.20;3.00;;;;;;;22.12;74.92;99753.34;5018474;28;20207;-79
2023/09/18 08:34:06;;;;;;;7.03;3.55;;;;;;;22.21;73.87;99759.50;5012046;28;20683;-79
2023/09/18 08:36:32;;;;;;;7.03;3.30;;;;;;;22.25;73.43;99744.50;5020275;28;20289;-79
2023/09/18 08:38:59;;;;;;;6.85;3.10;;;;;;;22.31;73.59;99754.59;5023598;28;20229;-79
2023/09/18 08:41:29;;;;;;;6.25;3.30;;;;;;;22.40;72.98;99747.97;5026141;28;20735;-78
2023/09/18 08:44:01;;;;;;;6.78;3.47;;;;;;;22.48;72.75;99740.56;5013523;28;20661;-79
2023/09/18 08:46:28;;;;;;;5.75;2.90;;;;;;;22.57;71.88;99741.25;5019101;28;20226;-79
2023/09/18 08:48:56;;;;;;;5.35;3.17;;;;;;;22.62;72.05;99755.06;5012333;28;20222;-79
2023/09/18 08:51:23;;;;;;;4.85;3.20;;;;;;;22.66;72.15;99747.38;5019916;28;20206;-79
2023/09/18 08:53:51;;;;;;;8.25;3.40;;;;;;;22.68;72.23;99748.00;5024022;28;20207;-79
2023/09/18 08:56:19;;;;;;;3.72;2.80;;;;;;;22.77;71.09;99755.84;5012806;28;20876;-79
2023/09/18 08:58:45;;;;;;;5.03;2.88;;;;;;;22.79;70.62;99747.50;5020955;28;20277;-79
2023/09/18 09:01:13;;;;;;;6.00;3.05;;;;;;;22.83;70.51;99748.78;5017926;28;20210;-78
2023/09/18 09:03:40;;;;;;;6.97;3.30;;;;;;;22.90;70.16;99749.69;5014444;28;20258;-78
2023/09/18 09:06:09;;;;;;;5.15;2.72;;;;;;;22.93;69.86;99740.31;5016360;28;20644;-79
2023/09/18 09:08:36;;;;;;;4.93;2.60;;;;;;;22.97;69.95;99747.00;5012042;28;20603;-79
2023/09/18 09:11:02;;;;;;;3.95;2.75;;;;;;;23.04;69.19;99739.75;5006347;28;20210;-78
2023/09/18 09:13:29;;;;;;;4.95;2.42;;;;;;;23.09;68.44;99739.97;5016510;28;20572;-79
2023/09/18 09:15:57;;;;;;;6.28;2.75;;;;;;;23.12;69.12;99731.41;5022225;28;20252;-79
2023/09/18 09:18:25;;;;;;;6.07;2.70;;;;;;;23.13;68.40;99742.06;5014301;28;20226;-78
2023/09/18 09:20:57;;;;;;;6.15;2.90;;;;;;;23.19;68.92;99751.31;5017256;28;20206;-79
2023/09/18 09:23:26;;;;;;;4.53;2.65;;;;;;;23.23;68.62;99749.03;5012610;28;20261;-80
2023/09/18 09:25:52;;;;;;;4.25;2.20;;;;;;;23.23;68.16;99755.31;5014550;28;20218;-78
2023/09/18 09:28:30;;;;;;;5.53;2.38;;;;;;;23.25;68.47;99753.25;5021351;28;20703;-79
2023/09/18 09:31:02;;;;;;;6.32;2.65;;;;;;;23.24;68.87;99761.59;5012811;28;20202;-78
2023/09/18 09:33:29;;;;;;;6.32;2.92;;;;;;;23.28;68.54;99760.16;5013174;28;20203;-78
2023/09/18 09:35:56;;;;;;;5.05;2.63;;;;;;;23.28;68.57;99761.00;5008788;28;20668;-79
2023/09/18 09:38:31;;;;;;;5.22;2.63;;;;;;;23.34;68.41;99771.03;5018079;28;20227;-79
2023/09/18 09:40:59;;;;;;;6.30;2.75;;;;;;;23.35;67.93;99752.84;5012612;28;20670;-80
2023/09/18 09:43:27;;;;;;;8.02;2.85;;;;;;;23.34;67.70;99743.88;5010892;28;20257;-79
2023/09/18 09:45:58;;;;;;;6.28;2.17;;;;;;;23.31;67.17;99757.84;5015054;28;20237;-79
2023/09/18 09:48:25;;;;;;;6.28;2.22;;;;;;;23.30;67.12;99755.31;5014769;28;20305;-79
2023/09/18 09:50:55;;;;;;;6.13;2.35;;;;;;;23.25;67.43;99755.13;5019651;28;20202;-78
2023/09/18 09:53:47;;;;;;;5.55;2.45;;;;;;;23.20;67.76;99756.56;5015600;28;20202;-79
2023/09/18 09:56:14;;;;;;;5.53;2.35;;;;;;;23.22;67.13;99756.34;5012641;28;20558;-79
2023/09/18 09:58:44;;;;;;;5.18;1.95;;;;;;;23.21;67.65;99762.81;5015264;28;20231;-79
2023/09/18 10:01:17;;;;;;;3.95;2.50;;;;;;;23.20;67.65;99770.13;5023643;28;20270;-78
2023/09/18 10:03:45;;;;;;;7.30;2.20;;;;;;;23.19;67.85;99762.19;5008306;28;20203;-79
2023/09/18 10:06:13;;;;;;;5.63;2.30;;;;;;;23.19;67.90;99762.19;5022859;28;20222;-79
2023/09/18 10:08:40;;;;;;;4.03;2.30;;;;;;;23.19;67.22;99763.03;5016341;28;20233;-79
2023/09/18 10:11:11;;;;;;;6.25;2.33;;;;;;;23.17;67.32;99756.94;5017215;28;20206;-79
2023/09/18 10:13:46;;;;;;;7.15;2.70;;;;;;;23.23;66.75;99749.03;5003595;28;20230;-79
2023/09/18 10:16:14;;;;;;;8.38;2.05;;;;;;;23.23;66.60;99754.47;5018500;28;20691;-79
2023/09/18 10:18:52;;;;;;;4.40;2.17;;;;;;;23.22;66.78;99764.50;5023149;28;20226;-78
2023/09/18 10:21:31;;;;;;;4.97;2.63;;;;;;;23.24;66.74;99764.31;5022256;28;20207;-79
2023/09/18 10:24:06;;;;;;;3.75;1.98;;;;;;;23.21;66.77;99762.81;5029384;28;20224;-79
2023/09/18 10:26:43;;;;;;;5.22;2.42;;;;;;;23.26;66.60;99760.34;5021947;28;20746;-79
2023/09/18 10:29:12;;;;;;;5.85;1.83;;;;;;;23.25;66.40;99771.41;5014526;28;20711;-79
2023/09/18 10:31:41;;;;;;;6.00;2.42;;;;;;;23.27;67.08;99769.34;5020956;28;20649;-80
2023/09/18 10:34:08;;;;;;;4.90;1.92;;;;;;;23.24;67.19;99767.84;5023102;28;20206;-78
2023/09/18 10:36:35;;;;;;;7.32;2.30;;;;;;;23.30;66.68;99758.88;5017111;28;20199;-79
2023/09/18 10:39:08;;;;;;;8.32;2.58;;;;;;;23.33;67.26;99768.53;5029206;28;20711;-80
2023/09/18 10:41:36;;;;;;;3.65;1.77;;;;;;;23.35;67.01;99770.00;5025800;28;20234;-80
2023/09/18 10:44:04;;;;;;;5.32;2.05;;;;;;;23.37;66.98;99776.06;5025495;28;20206;-79
2023/09/18 10:46:32;;;;;;;6.57;2.20;;;;;;;23.40;66.37;99778.41;5027080;28;20241;-79
2023/09/18 10:49:00;;;;;;;4.93;2.20;;;;;;;23.44;65.92;99784.28;5022535;28;20233;-79
2023/09/18 10:51:27;;;;;;;5.93;2.10;;;;;;;23.42;66.48;99791.78;5027935;28;20209;-79
2023/09/18 10:53:54;;;;;;;5.05;1.88;;;;;;;23.45;66.59;99783.22;5024080;28;20199;-79
2023/09/18 10:56:20;;;;;;;2.83;1.70;;;;;;;23.49;66.25;99804.34;5024252;28;20217;-79
2023/09/18 10:58:57;;;;;;;4.38;1.83;;;;;;;23.52;66.05;99798.56;5024820;28;20595;-80
2023/09/18 11:01:27;;;;;;;5.07;2.05;;;;;;;23.52;65.45;99808.59;5030094;28;20573;-79
2023/09/18 11:03:53;;;;;;;3.55;1.77;;;;;;;23.52;64.63;99809.41;5023934;28;20233;-79
2023/09/18 11:06:24;;;;;;;3.83;1.75;;;;;;;23.53;65.51;99827.41;5024909;28;20222;-79
2023/09/18 11:08:53;;;;;;;4.57;2.03;;;;;;;23.53;65.49;99821.13;5031933;28;20253;-79
2023/09/18 11:11:20;;;;;;;5.20;2.10;;;;;;;23.53;66.16;99835.56;5031593;28;20218;-79
2023/09/18 11:13:53;;;;;;;4.53;2.03;;;;;;;23.57;66.27;99840.59;5021832;28;20262;-79
2023/09/18 11:16:38;;;;;;;4.18;2.20;;;;;;;23.62;65.91;99825.38;5025147;28;20589;-78
2023/09/18 11:19:10;;;;;;;4.55;2.00;;;;;;;23.67;65.35;99813.88;5020039;28;20703;-80
2023/09/18 11:21:37;;;;;;;3.55;1.80;;;;;;;23.68;65.42;99813.69;5020548;28;20251;-79
2023/09/18 11:24:06;;;;;;;3.58;1.75;;;;;;;23.71;65.26;99823.31;5026234;28;20209;-78
2023/09/18 11:26:34;;;;;;;5.38;1.98;;;;;;;23.77;66.21;99817.06;5020008;28;20305;-78
2023/09/18 11:29:05;;;;;;;2.25;1.60;;;;;;;23.83;65.39;99816.25;5023085;28;20230;-78